الصفحة الرئيسية
METAR-TAF:

METAR-TAF

مطار :

مطار لارنكا الدولي

لارنكا, قبرص

دائرة عرض: 34-53N, خط طول: 033-38E, ارتفاع: 2 متر

مراقبة الطقس الحالي

تاريخ ووقت الإصدار 30 دقيقة قبل الساعة 08:00UTC
ريح 5 عقدة من الشرق, الاتجاه يتراوح بين الشمال الشرقي و الجنوب الشرقي
درجة الحرارة 28°درجة مئوية
الرطوبة 55%
ضغط 1014 hPa
الرؤية 10 كم أو أكثر
الغيوم لا تقل 1500 م ولا وجود لمزنة ركامية السحاب الأسود

METAR: LCLK 220800Z 10005KT 050V130 CAVOK 28/18 Q1014 NOSIG

زمن: 11:30 (08:30 UTC)

توقعات

تاريخ ووقت الإصدار 3ساعات و 0 دقيقة قبل الساعة 05:30UTC
التوقعات صالحة من22 الساعة 06 UTC إلى 23 الساعة 06 UTC
ريح 9 عقدة من الجنوب/الجنوب الشرقي
الرؤية 10 كم أو أكثر
الغيوم لا تقل 1500 م ولا وجود لمزنة ركامية السحاب الأسود
أصبح
من 22 الساعة 08 UTC إلى 22 الساعة 11 UTC
ريح 16 عقدة من الجنوب الغربي
أصبح
من 22 الساعة 16 UTC إلى 22 الساعة 20 UTC
ريح 7 عقدة من الشمال/الشمال الغربي

TAF: LCLK 220530Z 2206/2306 16009KT CAVOK BECMG 2208/2211 22016KT BECMG 2216/2220 33007KT

أرصاد الطقس والتوقعات من أكثر من 4000 مطار (تقارير الطقس للمطار METAR والتنبؤ بالطقس بالمطارTAF).

المحطات المتاحة هي النقط الصفراء والحمراء على الخريطة.

حرك المؤشر فوق النقطة لمعرفة اسم المحطة.

ثم انقر لمعرفة أرصاد وتوقعات الطقس.

لتغيير الخارطة: اضغط على الأزرار الخضراء مع رمز الصليب الأسود للتكبير. على الزر الأخضر مع شرطة للتصغير، أو على الأسهم الخضراء للخرائط المجاورة.


METAR-TAF: